Time;durP1;ratioP1;P1;durP2;ratioP2;P2;SDS_P1;SDS_P2;PMS_P1;PMS_P2;Temp;Humidity;BMP_temperature;BMP_pressure;BME280_temperature;BME280_humidity;BME280_pressure;Samples;Min_cycle;Max_cycle;Signal;HPM_P1;HPM_P2
2022/09/20 00:02:18;;;;;;;;;;;;;;;;;;10415604;28;19932;-60
2022/09/20 00:12:59;;;;;;;;;;;;;;;;;;10415149;28;20344;-60
2022/09/20 00:18:01;;;;;;;;;;;;;;;;;;10416086;28;19980;-60
2022/09/20 00:23:03;;;;;;;;;;;;;;;;;;10413739;28;19987;-60
2022/09/20 00:28:05;;;;;;;;;;;;;;;;;;10415244;28;20269;-60
2022/09/20 00:33:07;;;;;;;;;;;;;;;;;;10415736;28;19972;-60
2022/09/20 00:38:09;;;;;;;;;;;;;;;;;;10414516;28;19925;-60
2022/09/20 00:43:11;;;;;;;;;;;;;;;;;;10413744;28;19952;-60
2022/09/20 00:48:13;;;;;;;;;;;;;;;;;;10414682;28;20378;-60
2022/09/20 00:53:15;;;;;;;;;;;;;;;;;;10414698;28;19925;-60
2022/09/20 00:58:17;;;;;;;;;;;;;;;;;;10414237;28;19932;-61
2022/09/20 01:03:21;;;;;;;;;;;;;;;;;;10413986;28;19972;-60
2022/09/20 01:08:24;;;;;;;;;;;;;;;;;;10414194;28;19929;-60
2022/09/20 01:13:26;;;;;;;;;;;;;;;;;;10414399;28;20334;-60
2022/09/20 01:18:28;;;;;;;;;;;;;;;;;;10417548;28;19925;-60
2022/09/20 01:23:30;;;;;;;;;;;;;;;;;;10419473;28;20380;-60
2022/09/20 01:28:32;;;;;;;;;;;;;;;;;;10422132;28;19929;-61
2022/09/20 01:33:34;;;;;;;;;;;;;;;;;;10420027;28;19925;-60
2022/09/20 01:38:37;;;;;;;;;;;;;;;;;;10420702;28;19925;-60
2022/09/20 01:43:39;;;;;;;;;;;;;;;;;;10420423;28;19925;-60
2022/09/20 01:48:41;;;;;;;;;;;;;;;;;;10420483;28;20444;-60
2022/09/20 01:53:43;;;;;;;;;;;;;;;;;;10421110;28;19983;-60
2022/09/20 01:58:45;;;;;;;;;;;;;;;;;;10419301;28;20323;-60
2022/09/20 02:03:51;;;;;;;;;;;;;;;;;;10461071;22;19925;-57
2022/09/20 02:08:53;;;;;;;;;;;;;;;;;;10460885;28;19971;-56
2022/09/20 02:13:55;;;;;;;;;;;;;;;;;;10461677;28;20012;-57
2022/09/20 02:18:57;;;;;;;;;;;;;;;;;;10459941;28;19925;-54
2022/09/20 02:23:59;;;;;;;;;;;;;;;;;;10460393;28;19951;-55
2022/09/20 02:29:01;;;;;;;;;;;;;;;;;;10459769;28;20504;-57
2022/09/20 02:34:03;;;;;;;;;;;;;;;;;;10460817;28;19925;-57
2022/09/20 02:39:05;;;;;;;;;;;;;;;;;;10459664;28;19974;-55
2022/09/20 02:44:08;;;;;;;;;;;;;;;;;;10459485;28;19979;-57
2022/09/20 02:49:10;;;;;;;;;;;;;;;;;;10458272;28;19924;-54
2022/09/20 02:54:12;;;;;;;;;;;;;;;;;;10459402;28;20288;-55
2022/09/20 02:59:14;;;;;;;;;;;;;;;;;;10458823;28;19979;-56
2022/09/20 03:04:17;;;;;;;;;;;;;;;;;;10457894;28;19925;-55
2022/09/20 03:09:19;;;;;;;;;;;;;;;;;;10458853;28;20371;-56
2022/09/20 03:14:22;;;;;;;;;;;;;;;;;;10458076;28;19924;-57
2022/09/20 03:19:24;;;;;;;;;;;;;;;;;;10457370;28;20433;-55
2022/09/20 03:24:26;;;;;;;;;;;;;;;;;;10455668;28;19925;-57
2022/09/20 03:29:28;;;;;;;;;;;;;;;;;;10458079;28;19925;-56
2022/09/20 03:34:30;;;;;;;;;;;;;;;;;;10458482;28;19975;-55
2022/09/20 03:39:33;;;;;;;;;;;;;;;;;;10457412;28;19974;-56
2022/09/20 03:44:35;;;;;;;;;;;;;;;;;;10456222;28;19929;-56
2022/09/20 03:49:37;;;;;;;;;;;;;;;;;;10456433;28;20438;-57
2022/09/20 03:54:39;;;;;;;;;;;;;;;;;;10457879;28;19924;-55
2022/09/20 03:59:41;;;;;;;;;;;;;;;;;;10456237;28;19995;-57
2022/09/20 04:04:43;;;;;;;;;;;;;;;;;;10456668;28;19979;-54
2022/09/20 04:09:46;;;;;;;;;;;;;;;;;;10457503;28;19924;-54
2022/09/20 04:14:48;;;;;;;;;;;;;;;;;;10456431;28;19971;-54
2022/09/20 04:19:50;;;;;;;;;;;;;;;;;;10456714;28;20327;-56
2022/09/20 04:24:53;;;;;;;;;;;;;;;;;;10454204;28;19970;-54
2022/09/20 04:29:55;;;;;;;;;;;;;;;;;;10456495;28;20330;-55
2022/09/20 04:40:18;;;;;;;;;;;;;;;;;;10455305;28;19929;-56
2022/09/20 04:45:20;;;;;;;;;;;;;;;;;;10452521;28;20016;-55
2022/09/20 04:50:22;;;;;;;;;;;;;;;;;;10456016;28;20530;-55
2022/09/20 04:55:25;;;;;;;;;;;;;;;;;;10462491;28;19975;-55
2022/09/20 05:00:27;;;;;;;;;;;;;;;;;;10463296;28;19971;-55
2022/09/20 05:05:29;;;;;;;;;;;;;;;;;;10462226;28;19929;-56
2022/09/20 05:10:32;;;;;;;;;;;;;;;;;;10463514;28;20359;-57
2022/09/20 05:15:35;;;;;;;;;;;;;;;;;;10461883;28;19924;-55
2022/09/20 05:20:37;;;;;;;;;;;;;;;;;;10463746;28;20269;-56
2022/09/20 05:25:39;;;;;;;;;;;;;;;;;;10462288;28;19929;-56
2022/09/20 05:30:41;;;;;;;;;;;;;;;;;;10461569;28;19925;-53
2022/09/20 05:35:43;;;;;;;;;;;;;;;;;;10461950;28;19925;-56
2022/09/20 05:40:45;;;;;;;;;;;;;;;;;;10462393;28;19979;-54
2022/09/20 05:45:47;;;;;;;;;;;;;;;;;;10461187;28;19929;-56
2022/09/20 05:50:49;;;;;;;;;;;;;;;;;;10462644;28;20015;-55
2022/09/20 05:55:51;;;;;;;;;;;;;;;;;;10461397;28;19940;-55
2022/09/20 06:00:53;;;;;;;;;;;;;;;;;;10462008;28;19925;-57
2022/09/20 06:05:55;;;;;;;;;;;;;;;;;;10459085;28;19947;-55
2022/09/20 06:10:57;;;;;;;;;;;;;;;;;;10459966;28;19925;-55
2022/09/20 06:15:59;;;;;;;;;;;;;;;;;;10460956;28;19951;-55
2022/09/20 06:21:01;;;;;;;;;;;;;;;;;;10461482;28;19925;-55
2022/09/20 06:26:06;;;;;;;;;;;;;;;;;;10460008;28;19924;-54
2022/09/20 06:31:09;;;;;;;;;;;;;;;;;;10460444;28;19948;-56
2022/09/20 06:41:32;;;;;;;;;;;;;;;;;;10457364;28;19929;-56
2022/09/20 06:46:34;;;;;;;;;;;;;;;;;;10458221;28;19970;-54
2022/09/20 06:51:36;;;;;;;;;;;;;;;;;;10458411;28;20312;-56
2022/09/20 06:56:38;;;;;;;;;;;;;;;;;;10459970;28;19924;-56
2022/09/20 07:01:41;;;;;;;;;;;;;;;;;;10459512;28;19925;-55
2022/09/20 07:06:43;;;;;;;;;;;;;;;;;;10458630;28;19928;-54
2022/09/20 07:11:45;;;;;;;;;;;;;;;;;;10458532;28;19925;-57
2022/09/20 07:16:47;;;;;;;;;;;;;;;;;;10458007;28;19975;-57
2022/09/20 07:21:49;;;;;;;;;;;;;;;;;;10458924;28;19971;-57
2022/09/20 07:26:51;;;;;;;;;;;;;;;;;;10457680;28;19978;-56
2022/09/20 07:31:53;;;;;;;;;;;;;;;;;;10457974;28;19929;-56
2022/09/20 07:36:56;;;;;;;;;;;;;;;;;;10456347;28;19931;-56
2022/09/20 07:41:58;;;;;;;;;;;;;;;;;;10454079;28;19928;-52
2022/09/20 07:47:00;;;;;;;;;;;;;;;;;;10457506;28;20264;-57
2022/09/20 07:52:03;;;;;;;;;;;;;;;;;;10427996;28;19925;-56
2022/09/20 07:57:05;;;;;;;;;;;;;;;;;;10416936;28;19982;-62
2022/09/20 08:02:07;;;;;;;;;;;;;;;;;;10416002;28;19944;-57
2022/09/20 08:07:09;;;;;;;;;;;;;;;;;;10416430;28;19925;-57
2022/09/20 08:12:13;;;;;;;;;;;;;;;;;;10416313;28;19929;-55
2022/09/20 08:17:35;;;;;;;;;;;;;;;;;;10415423;28;20054;-58
2022/09/20 08:22:40;;;;;;;;;;;;;;;;;;10416037;28;19975;-58
2022/09/20 08:27:42;;;;;;;;;;;;;;;;;;10418197;28;19933;-56
2022/09/20 08:32:45;;;;;;;;;;;;;;;;;;10423577;28;19929;-58
2022/09/20 08:37:47;;;;;;;;;;;;;;;;;;10423866;28;20376;-57
2022/09/20 08:42:49;;;;;;;;;;;;;;;;;;10423398;28;19925;-58
2022/09/20 08:47:52;;;;;;;;;;;;;;;;;;10423817;28;19979;-58
2022/09/20 08:52:58;;;;;;;;;;;;;;;;;;10423714;28;19926;-58
2022/09/20 08:58:02;;;;;;;;;;;;;;;;;;10422821;28;20369;-58
2022/09/20 09:03:09;;;;;;;;;;;;;;;;;;10422790;28;19925;-58
2022/09/20 09:08:15;;;;;;;;;;;;;;;;;;10422432;28;20426;-58
2022/09/20 09:13:17;;;;;;;;;;;;;;;;;;10422844;28;19967;-62
2022/09/20 09:18:19;;;;;;;;;;;;;;;;;;10422661;28;19925;-58
2022/09/20 09:23:24;;;;;;;;;;;;;;;;;;10422495;28;19932;-58
2022/09/20 09:28:30;;;;;;;;;;;;;;;;;;10422334;28;19929;-59
2022/09/20 09:33:32;;;;;;;;;;;;;;;;;;10422105;28;19933;-58
2022/09/20 09:38:34;;;;;;;;;;;;;;;;;;10421826;28;19979;-59
2022/09/20 09:43:36;;;;;;;;;;;;;;;;;;10421754;28;19925;-59
2022/09/20 09:48:38;;;;;;;;;;;;;;;;;;10421548;28;19925;-58
2022/09/20 09:53:41;;;;;;;;;;;;;;;;;;10421288;28;19925;-63
2022/09/20 09:58:43;;;;;;;;;;;;;;;;;;10421130;28;19952;-59
2022/09/20 10:03:45;;;;;;;;;;;;;;;;;;10419820;28;19925;-59
2022/09/20 10:08:47;;;;;;;;;;;;;;;;;;10420126;28;20284;-59
2022/09/20 10:13:50;;;;;;;;;;;;;;;;;;10420496;28;19925;-59
2022/09/20 10:18:52;;;;;;;;;;;;;;;;;;10419750;28;19975;-59
2022/09/20 10:23:55;;;;;;;;;;;;;;;;;;10419573;28;20430;-59
2022/09/20 10:29:04;;;;;;;;;;;;;;;;;;10431911;28;20272;-59
2022/09/20 10:34:06;;;;;;;;;;;;;;;;;;10459421;28;19979;-59
2022/09/20 10:39:08;;;;;;;;;;;;;;;;;;10460827;28;19925;-59
2022/09/20 10:44:11;;;;;;;;;;;;;;;;;;10459002;28;20330;-60
2022/09/20 10:49:13;;;;;;;;;;;;;;;;;;10459349;28;19982;-59
2022/09/20 10:54:15;;;;;;;;;;;;;;;;;;10458218;28;19924;-57
2022/09/20 10:59:17;;;;;;;;;;;;;;;;;;10459929;28;19928;-56
2022/09/20 11:04:20;;;;;;;;;;;;;;;;;;10457974;28;19936;-56
2022/09/20 11:09:22;;;;;;;;;;;;;;;;;;10458129;28;20422;-57
2022/09/20 11:14:25;;;;;;;;;;;;;;;;;;10458321;28;19925;-57
2022/09/20 11:19:27;;;;;;;;;;;;;;;;;;10458542;28;19933;-56
2022/09/20 11:24:29;;;;;;;;;;;;;;;;;;10455078;28;19990;-57
2022/09/20 11:29:31;;;;;;;;;;;;;;;;;;10457408;28;20383;-57
2022/09/20 11:34:33;;;;;;;;;;;;;;;;;;10456681;28;19983;-57
2022/09/20 11:39:35;;;;;;;;;;;;;;;;;;10456339;28;19925;-57
2022/09/20 11:44:37;;;;;;;;;;;;;;;;;;10455651;28;20384;-57
2022/09/20 11:49:39;;;;;;;;;;;;;;;;;;10454897;28;19925;-57
2022/09/20 11:54:41;;;;;;;;;;;;;;;;;;10455029;28;19925;-57
2022/09/20 11:59:43;;;;;;;;;;;;;;;;;;10455752;28;19928;-57
2022/09/20 12:04:46;;;;;;;;;;;;;;;;;;10452847;28;19932;-57
2022/09/20 12:09:48;;;;;;;;;;;;;;;;;;10451636;28;20264;-57
2022/09/20 12:14:50;;;;;;;;;;;;;;;;;;10455771;28;19925;-57
2022/09/20 12:19:52;;;;;;;;;;;;;;;;;;10456948;28;20024;-57
2022/09/20 12:24:54;;;;;;;;;;;;;;;;;;10454385;28;19952;-57
2022/09/20 12:29:56;;;;;;;;;;;;;;;;;;10456452;28;20417;-57
2022/09/20 12:34:59;;;;;;;;;;;;;;;;;;10456898;28;19924;-57
2022/09/20 12:40:01;;;;;;;;;;;;;;;;;;10456182;28;20331;-57
2022/09/20 12:45:03;;;;;;;;;;;;;;;;;;10457333;28;19948;-57
2022/09/20 12:55:25;;;;;;;;;;;;;;;;;;10455571;28;19925;-57
2022/09/20 13:00:29;;;;;;;;;;;;;;;;;;10456559;28;19925;-58
2022/09/20 13:05:32;;;;;;;;;;;;;;;;;;10456417;28;19974;-57
2022/09/20 13:10:34;;;;;;;;;;;;;;;;;;10455342;28;20368;-57
2022/09/20 13:15:37;;;;;;;;;;;;;;;;;;10452044;28;20394;-57
2022/09/20 13:20:39;;;;;;;;;;;;;;;;;;10464156;28;19924;-57
2022/09/20 13:25:41;;;;;;;;;;;;;;;;;;10463349;28;19928;-57
2022/09/20 13:30:43;;;;;;;;;;;;;;;;;;10463455;28;19979;-57
2022/09/20 13:35:45;;;;;;;;;;;;;;;;;;10463277;28;19947;-57
2022/09/20 13:40:48;;;;;;;;;;;;;;;;;;10463008;28;19932;-57
2022/09/20 13:45:50;;;;;;;;;;;;;;;;;;10462342;28;20331;-56
2022/09/20 13:50:52;;;;;;;;;;;;;;;;;;10461584;28;19980;-57
2022/09/20 13:55:54;;;;;;;;;;;;;;;;;;10461849;28;19925;-57
2022/09/20 14:00:57;;;;;;;;;;;;;;;;;;10458392;28;19979;-57
2022/09/20 14:05:59;;;;;;;;;;;;;;;;;;10501794;28;19925;-60
2022/09/20 14:11:01;;;;;;;;;;;;;;;;;;10479912;28;19928;-59
2022/09/20 14:16:03;;;;;;;;;;;;;;;;;;10457176;22;19929;-60
2022/09/20 14:21:05;;;;;;;;;;;;;;;;;;10417966;28;22140;-66
2022/09/20 14:26:07;;;;;;;;;;;;;;;;;;10418499;28;19932;-60
2022/09/20 14:31:09;;;;;;;;;;;;;;;;;;10419228;28;19929;-60
2022/09/20 14:36:11;;;;;;;;;;;;;;;;;;10419107;28;19936;-60
2022/09/20 14:41:13;;;;;;;;;;;;;;;;;;10418437;28;20368;-60
2022/09/20 14:46:15;;;;;;;;;;;;;;;;;;10418933;28;19983;-60
2022/09/20 14:51:17;;;;;;;;;;;;;;;;;;10418105;28;19925;-57
2022/09/20 14:56:19;;;;;;;;;;;;;;;;;;10418504;28;19932;-57
2022/09/20 15:01:22;;;;;;;;;;;;;;;;;;10417728;28;19979;-57
2022/09/20 15:06:24;;;;;;;;;;;;;;;;;;10418171;28;19979;-57
2022/09/20 15:11:28;;;;;;;;;;;;;;;;;;10417860;28;19929;-57
2022/09/20 15:16:32;;;;;;;;;;;;;;;;;;10417182;28;19987;-57
2022/09/20 15:21:34;;;;;;;;;;;;;;;;;;10417566;28;19932;-57
2022/09/20 15:26:36;;;;;;;;;;;;;;;;;;10417303;28;19929;-57
2022/09/20 15:31:39;;;;;;;;;;;;;;;;;;10416568;28;19925;-57
2022/09/20 15:36:41;;;;;;;;;;;;;;;;;;10416777;28;20036;-57
2022/09/20 15:41:44;;;;;;;;;;;;;;;;;;10416166;28;20331;-57
2022/09/20 15:46:47;;;;;;;;;;;;;;;;;;10416993;28;19925;-57
2022/09/20 15:51:50;;;;;;;;;;;;;;;;;;10416463;28;19971;-57
2022/09/20 15:56:52;;;;;;;;;;;;;;;;;;10415633;28;19929;-57
2022/09/20 16:01:54;;;;;;;;;;;;;;;;;;10416127;28;19929;-58
2022/09/20 16:06:56;;;;;;;;;;;;;;;;;;10416029;28;19931;-57
2022/09/20 16:11:59;;;;;;;;;;;;;;;;;;10415894;28;19971;-57
2022/09/20 16:17:01;;;;;;;;;;;;;;;;;;10415318;28;20016;-57
2022/09/20 16:22:03;;;;;;;;;;;;;;;;;;10415076;28;20310;-58
2022/09/20 16:27:05;;;;;;;;;;;;;;;;;;10413340;28;19975;-57
2022/09/20 16:32:07;;;;;;;;;;;;;;;;;;10403584;28;20394;-60
2022/09/20 16:37:10;;;;;;;;;;;;;;;;;;10425787;28;19972;-60
2022/09/20 16:42:13;;;;;;;;;;;;;;;;;;10421403;28;20030;-60
2022/09/20 16:47:22;;;;;;;;;;;;;;;;;;10414588;28;19932;-60
2022/09/20 16:52:25;;;;;;;;;;;;;;;;;;10426698;28;20332;-57
2022/09/20 16:57:27;;;;;;;;;;;;;;;;;;10423102;28;19925;-58
2022/09/20 17:02:29;;;;;;;;;;;;;;;;;;10422914;28;19975;-57
2022/09/20 17:07:32;;;;;;;;;;;;;;;;;;10421095;28;19975;-57
2022/09/20 17:12:40;;;;;;;;;;;;;;;;;;10420511;28;19925;-57
2022/09/20 17:17:42;;;;;;;;;;;;;;;;;;10416594;28;20376;-57
2022/09/20 17:22:44;;;;;;;;;;;;;;;;;;10420233;28;19928;-57
2022/09/20 17:27:46;;;;;;;;;;;;;;;;;;10414819;28;19925;-57
2022/09/20 17:32:49;;;;;;;;;;;;;;;;;;10421435;28;19925;-57
2022/09/20 17:37:51;;;;;;;;;;;;;;;;;;10438664;28;19925;-57
2022/09/20 17:42:53;;;;;;;;;;;;;;;;;;10418534;28;20376;-57
2022/09/20 17:47:56;;;;;;;;;;;;;;;;;;10417388;28;19979;-57
2022/09/20 17:52:58;;;;;;;;;;;;;;;;;;10407399;28;20368;-57
2022/09/20 17:58:00;;;;;;;;;;;;;;;;;;10410469;28;19933;-57
2022/09/20 18:03:02;;;;;;;;;;;;;;;;;;10415918;28;20371;-57
2022/09/20 18:08:05;;;;;;;;;;;;;;;;;;10413195;28;19972;-57
2022/09/20 18:13:07;;;;;;;;;;;;;;;;;;10417679;28;20354;-57
2022/09/20 18:18:10;;;;;;;;;;;;;;;;;;10414860;28;20002;-57
2022/09/20 18:23:12;;;;;;;;;;;;;;;;;;10416891;28;19926;-57
2022/09/20 18:28:14;;;;;;;;;;;;;;;;;;10415154;28;20315;-57
2022/09/20 18:33:16;;;;;;;;;;;;;;;;;;10416811;28;19931;-57
2022/09/20 18:38:19;;;;;;;;;;;;;;;;;;10415306;28;19929;-58
2022/09/20 18:43:21;;;;;;;;;;;;;;;;;;10410380;28;19937;-58
2022/09/20 18:48:23;;;;;;;;;;;;;;;;;;10414550;28;20339;-58
2022/09/20 18:53:25;;;;;;;;;;;;;;;;;;10415809;28;19975;-58
2022/09/20 18:58:29;;;;;;;;;;;;;;;;;;10414589;28;21135;-58
2022/09/20 19:03:32;;;;;;;;;;;;;;;;;;10405154;28;19925;-57
2022/09/20 19:08:35;;;;;;;;;;;;;;;;;;10416090;28;19925;-57
2022/09/20 19:13:38;;;;;;;;;;;;;;;;;;10413805;28;19925;-57
2022/09/20 19:18:40;;;;;;;;;;;;;;;;;;10411912;28;19929;-57
2022/09/20 19:23:42;;;;;;;;;;;;;;;;;;10412903;28;19979;-58
2022/09/20 19:28:44;;;;;;;;;;;;;;;;;;10414715;28;19925;-57
2022/09/20 19:33:47;;;;;;;;;;;;;;;;;;10416500;28;20369;-58
2022/09/20 19:38:49;;;;;;;;;;;;;;;;;;10415868;28;19979;-58
2022/09/20 19:43:51;;;;;;;;;;;;;;;;;;10416764;28;19975;-58
2022/09/20 19:48:55;;;;;;;;;;;;;;;;;;10417315;28;19925;-58
2022/09/20 19:53:57;;;;;;;;;;;;;;;;;;10415441;28;19929;-58
2022/09/20 19:58:59;;;;;;;;;;;;;;;;;;10413383;28;20343;-58
2022/09/20 20:04:02;;;;;;;;;;;;;;;;;;10415526;28;19926;-58
2022/09/20 20:09:05;;;;;;;;;;;;;;;;;;10416013;28;19929;-57
2022/09/20 20:14:07;;;;;;;;;;;;;;;;;;10414219;28;20372;-57
2022/09/20 20:19:09;;;;;;;;;;;;;;;;;;10414007;28;20442;-57
2022/09/20 20:24:11;;;;;;;;;;;;;;;;;;10414845;28;19987;-58
2022/09/20 20:29:13;;;;;;;;;;;;;;;;;;10414379;28;19933;-57
2022/09/20 20:34:16;;;;;;;;;;;;;;;;;;10414533;28;19984;-58
2022/09/20 20:39:18;;;;;;;;;;;;;;;;;;10413580;28;20442;-57
2022/09/20 20:44:20;;;;;;;;;;;;;;;;;;10415292;28;19929;-58
2022/09/20 20:49:23;;;;;;;;;;;;;;;;;;10414579;28;20280;-57
2022/09/20 20:54:25;;;;;;;;;;;;;;;;;;10414107;28;19928;-57
2022/09/20 20:59:28;;;;;;;;;;;;;;;;;;10410846;28;20030;-58
2022/09/20 21:04:32;;;;;;;;;;;;;;;;;;10409674;28;19979;-58
2022/09/20 21:09:34;;;;;;;;;;;;;;;;;;10411968;28;20351;-57
2022/09/20 21:14:37;;;;;;;;;;;;;;;;;;10413192;28;20429;-57
2022/09/20 21:19:39;;;;;;;;;;;;;;;;;;10412689;28;20334;-57
2022/09/20 21:24:41;;;;;;;;;;;;;;;;;;10414479;28;19925;-57
2022/09/20 21:29:43;;;;;;;;;;;;;;;;;;10412055;28;20430;-57
2022/09/20 21:34:45;;;;;;;;;;;;;;;;;;10415857;28;19925;-57
2022/09/20 21:39:47;;;;;;;;;;;;;;;;;;10418734;28;19979;-58
2022/09/20 21:44:51;;;;;;;;;;;;;;;;;;10420381;28;19929;-58
2022/09/20 21:49:54;;;;;;;;;;;;;;;;;;10421285;28;19925;-57
2022/09/20 21:54:56;;;;;;;;;;;;;;;;;;10420045;28;19933;-57
2022/09/20 21:59:58;;;;;;;;;;;;;;;;;;10418773;28;19925;-57
2022/09/20 22:05:01;;;;;;;;;;;;;;;;;;10420511;28;19929;-58
2022/09/20 22:10:03;;;;;;;;;;;;;;;;;;10420456;28;19925;-57
2022/09/20 22:15:05;;;;;;;;;;;;;;;;;;10418415;28;20372;-58
2022/09/20 22:20:07;;;;;;;;;;;;;;;;;;10416438;28;20388;-57
2022/09/20 22:25:10;;;;;;;;;;;;;;;;;;10419697;28;19933;-57
2022/09/20 22:30:12;;;;;;;;;;;;;;;;;;10417335;28;19925;-57
2022/09/20 22:35:14;;;;;;;;;;;;;;;;;;10418790;28;19933;-57
2022/09/20 22:40:16;;;;;;;;;;;;;;;;;;10418287;28;19929;-57
2022/09/20 22:45:18;;;;;;;;;;;;;;;;;;10418960;28;19925;-58
2022/09/20 22:50:21;;;;;;;;;;;;;;;;;;10418404;28;19929;-58
2022/09/20 22:55:23;;;;;;;;;;;;;;;;;;10417007;28;19925;-58
2022/09/20 23:00:25;;;;;;;;;;;;;;;;;;10416899;28;19925;-58
2022/09/20 23:05:27;;;;;;;;;;;;;;;;;;10417451;28;19925;-58
2022/09/20 23:10:29;;;;;;;;;;;;;;;;;;10416434;28;19932;-58
2022/09/20 23:15:31;;;;;;;;;;;;;;;;;;10417623;28;19932;-57
2022/09/20 23:20:34;;;;;;;;;;;;;;;;;;10415359;28;19948;-58
2022/09/20 23:25:36;;;;;;;;;;;;;;;;;;10417469;28;19929;-58
2022/09/20 23:30:38;;;;;;;;;;;;;;;;;;10416564;28;20381;-57
2022/09/20 23:35:41;;;;;;;;;;;;;;;;;;10416197;28;19931;-58
2022/09/20 23:40:44;;;;;;;;;;;;;;;;;;10414923;28;19932;-58
2022/09/20 23:45:46;;;;;;;;;;;;;;;;;;10415847;28;19929;-58
2022/09/20 23:50:49;;;;;;;;;;;;;;;;;;10415605;28;19965;-57
2022/09/20 23:55:51;;;;;;;;;;;;;;;;;;10416355;28;19932;-58
